sensor_id;sensor_type;location;lat;lon;timestamp;pressure;altitude;pressure_sealevel;temperature;humidity
48630;BME280;34426;52.180;4.462;2024-03-02T00:00:55;99819.22;;;6.71;100.00
48630;BME280;34426;52.180;4.462;2024-03-02T00:03:20;99811.91;;;6.59;100.00
48630;BME280;34426;52.180;4.462;2024-03-02T00:05:49;99819.41;;;6.59;100.00
48630;BME280;34426;52.180;4.462;2024-03-02T00:08:21;99819.16;;;6.60;100.00
48630;BME280;34426;52.180;4.462;2024-03-02T00:10:47;99827.47;;;6.60;100.00
48630;BME280;34426;52.180;4.462;2024-03-02T00:13:13;99825.81;;;6.59;100.00
48630;BME280;34426;52.180;4.462;2024-03-02T00:15:44;99815.75;;;6.53;100.00
48630;BME280;34426;52.180;4.462;2024-03-02T00:18:13;99831.31;;;6.49;100.00
48630;BME280;34426;52.180;4.462;2024-03-02T00:20:40;99825.19;;;6.47;100.00
48630;BME280;34426;52.180;4.462;2024-03-02T00:23:07;99837.41;;;6.46;100.00
48630;BME280;34426;52.180;4.462;2024-03-02T00:25:39;99857.94;;;6.45;100.00
48630;BME280;34426;52.180;4.462;2024-03-02T00:28:05;99857.38;;;6.43;100.00
48630;BME280;34426;52.180;4.462;2024-03-02T00:33:28;99851.19;;;6.36;100.00
48630;BME280;34426;52.180;4.462;2024-03-02T00:35:55;99852.63;;;6.39;100.00
48630;BME280;34426;52.180;4.462;2024-03-02T00:38:21;99847.91;;;6.39;100.00
48630;BME280;34426;52.180;4.462;2024-03-02T00:40:47;99853.44;;;6.39;100.00
48630;BME280;34426;52.180;4.462;2024-03-02T00:43:39;99860.59;;;6.30;100.00
48630;BME280;34426;52.180;4.462;2024-03-02T00:46:06;99852.22;;;6.25;100.00
48630;BME280;34426;52.180;4.462;2024-03-02T00:48:33;99856.09;;;6.24;100.00
48630;BME280;34426;52.180;4.462;2024-03-02T00:50:58;99855.00;;;6.25;100.00
48630;BME280;34426;52.180;4.462;2024-03-02T00:53:26;99855.78;;;6.20;100.00
48630;BME280;34426;52.180;4.462;2024-03-02T00:55:51;99849.88;;;6.12;100.00
48630;BME280;34426;52.180;4.462;2024-03-02T00:58:17;99856.56;;;6.16;100.00
48630;BME280;34426;52.180;4.462;2024-03-02T01:00:43;99854.31;;;6.13;100.00
48630;BME280;34426;52.180;4.462;2024-03-02T01:03:08;99857.88;;;6.08;100.00
48630;BME280;34426;52.180;4.462;2024-03-02T01:05:35;99844.25;;;6.02;100.00
48630;BME280;34426;52.180;4.462;2024-03-02T01:08:01;99852.03;;;6.05;100.00
48630;BME280;34426;52.180;4.462;2024-03-02T01:10:26;99841.47;;;6.02;100.00
48630;BME280;34426;52.180;4.462;2024-03-02T01:12:52;99844.19;;;5.96;100.00
48630;BME280;34426;52.180;4.462;2024-03-02T01:15:17;99840.91;;;5.99;100.00
48630;BME280;34426;52.180;4.462;2024-03-02T01:17:43;99844.41;;;5.90;100.00
48630;BME280;34426;52.180;4.462;2024-03-02T01:20:09;99854.78;;;5.99;100.00
48630;BME280;34426;52.180;4.462;2024-03-02T01:22:36;99835.34;;;5.99;100.00
48630;BME280;34426;52.180;4.462;2024-03-02T01:25:02;99843.03;;;5.92;100.00
48630;BME280;34426;52.180;4.462;2024-03-02T01:27:27;99846.06;;;5.91;100.00
48630;BME280;34426;52.180;4.462;2024-03-02T01:29:53;99864.06;;;5.88;100.00
48630;BME280;34426;52.180;4.462;2024-03-02T01:32:19;99862.47;;;5.92;100.00
48630;BME280;34426;52.180;4.462;2024-03-02T01:34:44;99850.44;;;5.87;100.00
48630;BME280;34426;52.180;4.462;2024-03-02T01:37:09;99861.22;;;5.83;100.00
48630;BME280;34426;52.180;4.462;2024-03-02T01:39:36;99876.03;;;5.89;100.00
48630;BME280;34426;52.180;4.462;2024-03-02T01:42:02;99887.28;;;5.82;100.00
48630;BME280;34426;52.180;4.462;2024-03-02T01:44:27;99889.56;;;5.85;100.00
48630;BME280;34426;52.180;4.462;2024-03-02T01:46:53;99887.28;;;5.82;100.00
48630;BME280;34426;52.180;4.462;2024-03-02T01:49:18;99874.56;;;5.86;100.00
48630;BME280;34426;52.180;4.462;2024-03-02T01:51:44;99870.13;;;5.85;100.00
48630;BME280;34426;52.180;4.462;2024-03-02T01:54:10;99882.84;;;5.81;100.00
48630;BME280;34426;52.180;4.462;2024-03-02T01:56:37;99878.59;;;5.74;100.00
48630;BME280;34426;52.180;4.462;2024-03-02T01:59:02;99881.22;;;5.85;100.00
48630;BME280;34426;52.180;4.462;2024-03-02T02:01:28;99881.31;;;5.90;100.00
48630;BME280;34426;52.180;4.462;2024-03-02T02:03:53;99891.16;;;5.81;100.00
48630;BME280;34426;52.180;4.462;2024-03-02T02:06:19;99887.81;;;5.79;100.00
48630;BME280;34426;52.180;4.462;2024-03-02T02:08:44;99890.66;;;5.84;100.00
48630;BME280;34426;52.180;4.462;2024-03-02T02:11:10;99881.56;;;5.89;100.00
48630;BME280;34426;52.180;4.462;2024-03-02T02:13:37;99888.28;;;5.93;100.00
48630;BME280;34426;52.180;4.462;2024-03-02T02:16:06;99894.66;;;5.93;100.00
48630;BME280;34426;52.180;4.462;2024-03-02T02:18:32;99893.00;;;5.92;100.00
48630;BME280;34426;52.180;4.462;2024-03-02T02:20:57;99892.47;;;5.95;100.00
48630;BME280;34426;52.180;4.462;2024-03-02T02:23:24;99893.56;;;5.94;100.00
48630;BME280;34426;52.180;4.462;2024-03-02T02:25:49;99891.94;;;5.98;100.00
48630;BME280;34426;52.180;4.462;2024-03-02T02:28:15;99891.91;;;5.93;100.00
48630;BME280;34426;52.180;4.462;2024-03-02T02:30:40;99894.47;;;6.00;100.00
48630;BME280;34426;52.180;4.462;2024-03-02T02:33:06;99900.00;;;6.00;100.00
48630;BME280;34426;52.180;4.462;2024-03-02T02:35:31;99904.22;;;6.03;100.00
48630;BME280;34426;52.180;4.462;2024-03-02T02:37:57;99902.88;;;6.10;100.00
48630;BME280;34426;52.180;4.462;2024-03-02T02:40:24;99908.69;;;6.09;100.00
48630;BME280;34426;52.180;4.462;2024-03-02T02:42:50;99894.53;;;6.10;100.00
48630;BME280;34426;52.180;4.462;2024-03-02T02:45:16;99893.97;;;6.08;100.00
48630;BME280;34426;52.180;4.462;2024-03-02T02:47:42;99898.16;;;6.11;100.00
48630;BME280;34426;52.180;4.462;2024-03-02T02:50:08;99896.75;;;6.08;100.00
48630;BME280;34426;52.180;4.462;2024-03-02T02:52:34;99888.16;;;6.10;100.00
48630;BME280;34426;52.180;4.462;2024-03-02T02:55:00;99891.44;;;6.07;100.00
48630;BME280;34426;52.180;4.462;2024-03-02T02:57:27;99889.75;;;6.00;100.00
48630;BME280;34426;52.180;4.462;2024-03-02T02:59:52;99891.56;;;6.17;100.00
48630;BME280;34426;52.180;4.462;2024-03-02T03:02:18;99889.00;;;6.10;100.00
48630;BME280;34426;52.180;4.462;2024-03-02T03:04:43;99897.94;;;6.17;100.00
48630;BME280;34426;52.180;4.462;2024-03-02T03:07:09;99895.16;;;6.17;100.00
48630;BME280;34426;52.180;4.462;2024-03-02T03:09:37;99891.03;;;6.20;100.00
48630;BME280;34426;52.180;4.462;2024-03-02T03:12:03;99897.09;;;6.17;100.00
48630;BME280;34426;52.180;4.462;2024-03-02T03:14:30;99897.69;;;6.19;100.00
48630;BME280;34426;52.180;4.462;2024-03-02T03:16:56;99890.00;;;6.26;100.00
48630;BME280;34426;52.180;4.462;2024-03-02T03:19:21;99895.50;;;6.21;100.00
48630;BME280;34426;52.180;4.462;2024-03-02T03:21:47;99901.34;;;6.24;100.00
48630;BME280;34426;52.180;4.462;2024-03-02T03:24:12;99898.31;;;6.26;100.00
48630;BME280;34426;52.180;4.462;2024-03-02T03:26:38;99907.22;;;6.28;100.00
48630;BME280;34426;52.180;4.462;2024-03-02T03:29:03;99909.09;;;6.22;100.00
48630;BME280;34426;52.180;4.462;2024-03-02T03:31:30;99905.59;;;6.32;100.00
48630;BME280;34426;52.180;4.462;2024-03-02T03:33:55;99903.34;;;6.29;100.00
48630;BME280;34426;52.180;4.462;2024-03-02T03:36:21;99907.53;;;6.31;100.00
48630;BME280;34426;52.180;4.462;2024-03-02T03:38:46;99905.50;;;6.22;100.00
48630;BME280;34426;52.180;4.462;2024-03-02T03:41:12;99911.63;;;6.24;100.00
48630;BME280;34426;52.180;4.462;2024-03-02T03:43:37;99912.41;;;6.19;100.00
48630;BME280;34426;52.180;4.462;2024-03-02T03:46:03;99914.72;;;6.27;100.00
48630;BME280;34426;52.180;4.462;2024-03-02T03:48:30;99904.91;;;6.20;100.00
48630;BME280;34426;52.180;4.462;2024-03-02T03:50:55;99914.88;;;6.16;100.00
48630;BME280;34426;52.180;4.462;2024-03-02T03:53:21;99910.16;;;6.16;100.00
48630;BME280;34426;52.180;4.462;2024-03-02T03:55:46;99911.56;;;6.19;100.00
48630;BME280;34426;52.180;4.462;2024-03-02T03:58:12;99909.38;;;6.21;100.00
48630;BME280;34426;52.180;4.462;2024-03-02T04:00:37;99914.91;;;6.21;100.00
48630;BME280;34426;52.180;4.462;2024-03-02T04:03:03;99931.31;;;6.22;100.00
48630;BME280;34426;52.180;4.462;2024-03-02T04:05:30;99925.44;;;6.19;100.00
48630;BME280;34426;52.180;4.462;2024-03-02T04:07:55;99925.56;;;6.29;100.00
48630;BME280;34426;52.180;4.462;2024-03-02T04:10:21;99927.81;;;6.32;100.00
48630;BME280;34426;52.180;4.462;2024-03-02T04:12:46;99927.44;;;6.23;100.00
48630;BME280;34426;52.180;4.462;2024-03-02T04:15:12;99928.28;;;6.24;100.00
48630;BME280;34426;52.180;4.462;2024-03-02T04:17:37;99924.41;;;6.25;100.00
48630;BME280;34426;52.180;4.462;2024-03-02T04:20:03;99924.41;;;6.25;100.00
48630;BME280;34426;52.180;4.462;2024-03-02T04:22:32;99923.50;;;6.19;100.00
48630;BME280;34426;52.180;4.462;2024-03-02T04:24:58;99927.72;;;6.22;100.00
48630;BME280;34426;52.180;4.462;2024-03-02T04:27:23;99935.19;;;6.21;100.00
48630;BME280;34426;52.180;4.462;2024-03-02T04:29:49;99933.56;;;6.25;100.00
48630;BME280;34426;52.180;4.462;2024-03-02T04:32:14;99936.09;;;6.27;100.00
48630;BME280;34426;52.180;4.462;2024-03-02T04:34:40;99927.44;;;6.23;100.00
48630;BME280;34426;52.180;4.462;2024-03-02T04:37:05;99935.47;;;6.20;100.00
48630;BME280;34426;52.180;4.462;2024-03-02T04:39:34;99936.44;;;6.09;100.00
48630;BME280;34426;52.180;4.462;2024-03-02T04:41:59;99938.34;;;6.03;100.00
48630;BME280;34426;52.180;4.462;2024-03-02T04:44:25;99941.38;;;6.02;100.00
48630;BME280;34426;52.180;4.462;2024-03-02T04:46:50;99940.31;;;6.08;100.00
48630;BME280;34426;52.180;4.462;2024-03-02T04:49:16;99942.75;;;5.99;100.00
48630;BME280;34426;52.180;4.462;2024-03-02T04:51:42;99947.97;;;5.95;100.00
48630;BME280;34426;52.180;4.462;2024-03-02T04:54:07;99953.22;;;5.92;100.00
48630;BME280;34426;52.180;4.462;2024-03-02T04:56:34;99958.84;;;5.80;100.00
48630;BME280;34426;52.180;4.462;2024-03-02T04:58:59;99966.78;;;5.72;100.00
48630;BME280;34426;52.180;4.462;2024-03-02T05:01:25;99965.38;;;5.69;100.00
48630;BME280;34426;52.180;4.462;2024-03-02T05:03:50;99967.63;;;5.72;100.00
48630;BME280;34426;52.180;4.462;2024-03-02T05:06:16;99967.38;;;5.74;100.00
48630;BME280;34426;52.180;4.462;2024-03-02T05:08:41;99976.59;;;5.79;100.00
48630;BME280;34426;52.180;4.462;2024-03-02T05:11:07;99970.88;;;5.86;100.00
48630;BME280;34426;52.180;4.462;2024-03-02T05:13:33;99968.84;;;5.81;100.00
48630;BME280;34426;52.180;4.462;2024-03-02T05:16:01;99970.13;;;5.90;100.00
48630;BME280;34426;52.180;4.462;2024-03-02T05:18:27;99975.56;;;5.85;100.00
48630;BME280;34426;52.180;4.462;2024-03-02T05:20:52;99978.28;;;5.80;100.00
48630;BME280;34426;52.180;4.462;2024-03-02T05:23:18;99977.75;;;5.83;100.00
48630;BME280;34426;52.180;4.462;2024-03-02T05:25:43;99975.50;;;5.80;100.00
48630;BME280;34426;52.180;4.462;2024-03-02T05:28:09;99978.28;;;5.80;100.00
48630;BME280;34426;52.180;4.462;2024-03-02T05:30:35;99986.66;;;5.85;100.00
48630;BME280;34426;52.180;4.462;2024-03-02T05:33:01;99981.69;;;5.87;100.00
48630;BME280;34426;52.180;4.462;2024-03-02T05:35:26;99978.78;;;5.77;100.00
48630;BME280;34426;52.180;4.462;2024-03-02T05:37:55;99983.09;;;5.68;100.00
48630;BME280;34426;52.180;4.462;2024-03-02T05:40:20;99982.50;;;5.61;100.00
48630;BME280;34426;52.180;4.462;2024-03-02T05:42:46;99984.72;;;5.64;100.00
48630;BME280;34426;52.180;4.462;2024-03-02T05:45:11;99994.16;;;5.63;100.00
48630;BME280;34426;52.180;4.462;2024-03-02T05:47:38;99990.91;;;5.71;100.00
48630;BME280;34426;52.180;4.462;2024-03-02T05:50:04;99990.72;;;5.78;100.00
48630;BME280;34426;52.180;4.462;2024-03-02T05:52:30;99992.66;;;5.77;100.00
48630;BME280;34426;52.180;4.462;2024-03-02T05:54:55;99982.16;;;5.79;100.00
48630;BME280;34426;52.180;4.462;2024-03-02T05:57:21;99987.44;;;5.81;100.00
48630;BME280;34426;52.180;4.462;2024-03-02T05:59:46;99984.84;;;5.74;100.00
48630;BME280;34426;52.180;4.462;2024-03-02T06:02:12;99972.00;;;5.68;100.00
48630;BME280;34426;52.180;4.462;2024-03-02T06:04:38;99986.72;;;5.68;100.00
48630;BME280;34426;52.180;4.462;2024-03-02T06:07:04;99982.75;;;5.59;100.00
48630;BME280;34426;52.180;4.462;2024-03-02T06:09:29;99989.91;;;5.55;100.00
48630;BME280;34426;52.180;4.462;2024-03-02T06:11:55;99983.78;;;5.53;100.00
48630;BME280;34426;52.180;4.462;2024-03-02T06:14:21;99987.97;;;5.56;100.00
48630;BME280;34426;52.180;4.462;2024-03-02T06:16:46;99994.53;;;5.50;100.00
48630;BME280;34426;52.180;4.462;2024-03-02T06:19:12;100001.25;;;5.54;100.00
48630;BME280;34426;52.180;4.462;2024-03-02T06:21:38;99996.34;;;5.61;100.00
48630;BME280;34426;52.180;4.462;2024-03-02T06:24:04;100007.44;;;5.61;100.00
48630;BME280;34426;52.180;4.462;2024-03-02T06:26:30;100001.91;;;5.61;100.00
48630;BME280;34426;52.180;4.462;2024-03-02T06:28:55;100001.09;;;5.65;100.00
48630;BME280;34426;52.180;4.462;2024-03-02T06:31:21;100003.25;;;5.58;100.00
48630;BME280;34426;52.180;4.462;2024-03-02T06:33:46;99997.81;;;5.47;100.00
48630;BME280;34426;52.180;4.462;2024-03-02T06:36:12;100006.03;;;5.58;100.00
48630;BME280;34426;52.180;4.462;2024-03-02T06:38:39;100007.31;;;5.51;100.00
48630;BME280;34426;52.180;4.462;2024-03-02T06:41:04;100003.59;;;5.62;100.00
48630;BME280;34426;52.180;4.462;2024-03-02T06:43:30;100016.66;;;5.66;100.00
48630;BME280;34426;52.180;4.462;2024-03-02T06:45:55;100007.44;;;5.61;100.00
48630;BME280;34426;52.180;4.462;2024-03-02T06:48:21;100013.00;;;5.61;100.00
48630;BME280;34426;52.180;4.462;2024-03-02T06:50:46;100010.81;;;5.63;100.00
48630;BME280;34426;52.180;4.462;2024-03-02T06:53:12;100011.09;;;5.66;100.00
48630;BME280;34426;52.180;4.462;2024-03-02T06:55:39;100016.34;;;5.63;100.00
48630;BME280;34426;52.180;4.462;2024-03-02T06:58:04;100020.84;;;5.69;100.00
48630;BME280;34426;52.180;4.462;2024-03-02T07:00:30;100023.19;;;5.77;100.00
48630;BME280;34426;52.180;4.462;2024-03-02T07:02:55;100026.16;;;5.71;100.00
48630;BME280;34426;52.180;4.462;2024-03-02T07:05:21;100025.88;;;5.72;100.00
48630;BME280;34426;52.180;4.462;2024-03-02T07:07:46;100029.91;;;5.81;100.00
48630;BME280;34426;52.180;4.462;2024-03-02T07:10:12;100036.63;;;5.85;100.00
48630;BME280;34426;52.180;4.462;2024-03-02T07:12:39;100044.38;;;5.83;100.00
48630;BME280;34426;52.180;4.462;2024-03-02T07:15:05;100050.09;;;5.93;100.00
48630;BME280;34426;52.180;4.462;2024-03-02T07:17:31;100051.00;;;5.99;100.00
48630;BME280;34426;52.180;4.462;2024-03-02T07:19:57;100050.16;;;5.98;100.00
48630;BME280;34426;52.180;4.462;2024-03-02T07:22:23;100042.19;;;6.07;100.00
48630;BME280;34426;52.180;4.462;2024-03-02T07:24:49;100039.13;;;6.04;100.00
48630;BME280;34426;52.180;4.462;2024-03-02T07:27:14;100040.16;;;5.97;100.00
48630;BME280;34426;52.180;4.462;2024-03-02T07:29:42;100051.78;;;5.94;100.00
48630;BME280;34426;52.180;4.462;2024-03-02T07:32:08;100060.03;;;5.89;100.00
48630;BME280;34426;52.180;4.462;2024-03-02T07:34:34;100051.06;;;5.87;100.00
48630;BME280;34426;52.180;4.462;2024-03-02T07:37:00;100053.50;;;6.00;100.00
48630;BME280;34426;52.180;4.462;2024-03-02T07:39:27;100055.78;;;6.04;100.00
48630;BME280;34426;52.180;4.462;2024-03-02T07:41:55;100057.47;;;6.05;100.00
48630;BME280;34426;52.180;4.462;2024-03-02T07:44:21;100057.47;;;6.05;100.00
48630;BME280;34426;52.180;4.462;2024-03-02T07:46:48;100063.19;;;5.98;100.00
48630;BME280;34426;52.180;4.462;2024-03-02T07:49:14;100061.09;;;6.10;100.00
48630;BME280;34426;52.180;4.462;2024-03-02T07:51:39;100064.78;;;6.16;100.00
48630;BME280;34426;52.180;4.462;2024-03-02T07:54:05;100060.91;;;6.17;100.00
48630;BME280;34426;52.180;4.462;2024-03-02T07:56:30;100069.81;;;6.19;100.00
48630;BME280;34426;52.180;4.462;2024-03-02T07:58:56;100068.22;;;6.23;100.00
48630;BME280;34426;52.180;4.462;2024-03-02T08:01:21;100066.47;;;6.39;100.00
48630;BME280;34426;52.180;4.462;2024-03-02T08:03:48;100065.16;;;6.46;100.00
48630;BME280;34426;52.180;4.462;2024-03-02T08:06:14;100072.44;;;6.52;100.00
48630;BME280;34426;52.180;4.462;2024-03-02T08:08:40;100067.25;;;6.61;100.00
48630;BME280;34426;52.180;4.462;2024-03-02T08:11:05;100060.53;;;6.57;100.00
48630;BME280;34426;52.180;4.462;2024-03-02T08:13:31;100056.66;;;6.58;100.00
48630;BME280;34426;52.180;4.462;2024-03-02T08:15:56;100067.97;;;6.51;100.00
48630;BME280;34426;52.180;4.462;2024-03-02T08:18:21;100054.38;;;6.50;100.00
48630;BME280;34426;52.180;4.462;2024-03-02T08:20:48;100066.28;;;6.45;100.00
48630;BME280;34426;52.180;4.462;2024-03-02T08:23:17;100065.16;;;6.46;100.00
48630;BME280;34426;52.180;4.462;2024-03-02T08:25:42;100070.09;;;6.39;100.00
48630;BME280;34426;52.180;4.462;2024-03-02T08:28:08;100071.75;;;6.40;100.00
48630;BME280;34426;52.180;4.462;2024-03-02T08:30:34;100076.22;;;6.41;100.00
48630;BME280;34426;52.180;4.462;2024-03-02T08:33:00;100073.50;;;6.46;100.00
48630;BME280;34426;52.180;4.462;2024-03-02T08:35:26;100069.06;;;6.45;100.00
48630;BME280;34426;52.180;4.462;2024-03-02T08:37:53;100073.25;;;6.48;100.00
48630;BME280;34426;52.180;4.462;2024-03-02T08:40:18;100070.72;;;6.46;100.00
48630;BME280;34426;52.180;4.462;2024-03-02T08:42:44;100064.94;;;6.53;100.00
48630;BME280;34426;52.180;4.462;2024-03-02T08:45:10;100065.25;;;6.56;100.00
48630;BME280;34426;52.180;4.462;2024-03-02T08:47:35;100070.88;;;6.61;100.00
48630;BME280;34426;52.180;4.462;2024-03-02T08:50:01;100065.59;;;6.60;100.00
48630;BME280;34426;52.180;4.462;2024-03-02T08:52:26;100077.00;;;6.63;100.00
48630;BME280;34426;52.180;4.462;2024-03-02T08:54:53;100074.88;;;6.71;100.00
48630;BME280;34426;52.180;4.462;2024-03-02T08:57:18;100082.56;;;6.63;100.00
48630;BME280;34426;52.180;4.462;2024-03-02T08:59:44;100081.84;;;6.73;100.00
48630;BME280;34426;52.180;4.462;2024-03-02T09:02:10;100073.56;;;6.78;100.00
48630;BME280;34426;52.180;4.462;2024-03-02T09:04:36;100079.44;;;6.82;100.00
48630;BME280;34426;52.180;4.462;2024-03-02T09:07:01;100068.94;;;6.89;100.00
48630;BME280;34426;52.180;4.462;2024-03-02T09:09:27;100076.13;;;6.85;100.00
48630;BME280;34426;52.180;4.462;2024-03-02T09:11:54;100081.75;;;6.90;100.00
48630;BME280;34426;52.180;4.462;2024-03-02T09:14:19;100085.69;;;6.99;100.00
48630;BME280;34426;52.180;4.462;2024-03-02T09:16:45;100083.50;;;7.01;100.00
48630;BME280;34426;52.180;4.462;2024-03-02T09:19:10;100083.28;;;7.08;100.00
48630;BME280;34426;52.180;4.462;2024-03-02T09:21:36;100078.00;;;7.06;100.00
48630;BME280;34426;52.180;4.462;2024-03-02T09:24:01;100073.88;;;7.14;100.00
48630;BME280;34426;52.180;4.462;2024-03-02T09:26:27;100076.41;;;7.15;100.00
48630;BME280;34426;52.180;4.462;2024-03-02T09:28:54;100082.53;;;7.17;100.00
48630;BME280;34426;52.180;4.462;2024-03-02T09:31:20;100085.41;;;7.27;98.93
48630;BME280;34426;52.180;4.462;2024-03-02T09:33:46;100094.66;;;7.33;98.61
48630;BME280;34426;52.180;4.462;2024-03-02T09:36:17;100098.78;;;7.30;99.39
48630;BME280;34426;52.180;4.462;2024-03-02T09:38:43;100103.84;;;7.39;99.10
48630;BME280;34426;52.180;4.462;2024-03-02T09:41:08;100103.34;;;7.47;99.22
48630;BME280;34426;52.180;4.462;2024-03-02T09:43:34;100099.25;;;7.54;96.63
48630;BME280;34426;52.180;4.462;2024-03-02T09:46:01;100095.44;;;7.65;97.38
48630;BME280;34426;52.180;4.462;2024-03-02T09:48:27;100108.25;;;7.66;95.16
48630;BME280;34426;52.180;4.462;2024-03-02T09:50:52;100099.38;;;7.70;94.75
48630;BME280;34426;52.180;4.462;2024-03-02T09:53:18;100099.44;;;7.80;94.38
48630;BME280;34426;52.180;4.462;2024-03-02T09:55:45;100104.75;;;7.86;94.36
48630;BME280;34426;52.180;4.462;2024-03-02T09:58:11;100096.47;;;7.96;94.16
48630;BME280;34426;52.180;4.462;2024-03-02T10:00:36;100097.09;;;8.09;91.79
48630;BME280;34426;52.180;4.462;2024-03-02T10:03:04;100101.06;;;8.23;90.87
48630;BME280;34426;52.180;4.462;2024-03-02T10:05:29;100094.97;;;8.31;89.57
48630;BME280;34426;52.180;4.462;2024-03-02T10:08:01;100098.41;;;8.48;90.04
48630;BME280;34426;52.180;4.462;2024-03-02T10:10:35;100097.34;;;8.70;89.02
48630;BME280;34426;52.180;4.462;2024-03-02T10:13:03;100099.63;;;8.83;86.94
48630;BME280;34426;52.180;4.462;2024-03-02T10:15:29;100094.63;;;8.85;84.75
48630;BME280;34426;52.180;4.462;2024-03-02T10:17:54;100104.13;;;8.99;85.67
48630;BME280;34426;52.180;4.462;2024-03-02T10:20:25;100098.56;;;9.19;85.07
48630;BME280;34426;52.180;4.462;2024-03-02T10:22:51;100093.84;;;9.30;85.04
48630;BME280;34426;52.180;4.462;2024-03-02T10:25:28;100100.25;;;9.41;84.44
48630;BME280;34426;52.180;4.462;2024-03-02T10:27:57;100082.41;;;9.47;82.48
48630;BME280;34426;52.180;4.462;2024-03-02T10:30:23;100081.28;;;9.53;81.51
48630;BME280;34426;52.180;4.462;2024-03-02T10:32:49;100077.91;;;9.76;80.44
48630;BME280;34426;52.180;4.462;2024-03-02T10:35:17;100066.66;;;9.96;81.26
48630;BME280;34426;52.180;4.462;2024-03-02T10:37:44;100085.13;;;9.87;78.62
48630;BME280;34426;52.180;4.462;2024-03-02T10:40:11;100084.59;;;9.75;78.17
48630;BME280;34426;52.180;4.462;2024-03-02T10:42:37;100079.56;;;9.67;77.88
48630;BME280;34426;52.180;4.462;2024-03-02T10:45:05;100079.56;;;9.57;78.20
48630;BME280;34426;52.180;4.462;2024-03-02T10:47:31;100076.22;;;9.70;81.17
48630;BME280;34426;52.180;4.462;2024-03-02T10:49:59;100076.22;;;9.80;81.40
48630;BME280;34426;52.180;4.462;2024-03-02T10:52:28;100079.00;;;9.80;79.32
48630;BME280;34426;52.180;4.462;2024-03-02T10:54:55;100062.50;;;9.89;79.64
48630;BME280;34426;52.180;4.462;2024-03-02T10:57:22;100081.22;;;9.83;78.14
48630;BME280;34426;52.180;4.462;2024-03-02T10:59:53;100065.59;;;9.87;78.55
48630;BME280;34426;52.180;4.462;2024-03-02T11:02:22;100064.13;;;10.00;78.47
48630;BME280;34426;52.180;4.462;2024-03-02T11:04:49;100073.91;;;10.02;76.43
48630;BME280;34426;52.180;4.462;2024-03-02T11:07:18;100071.66;;;10.05;76.39
48630;BME280;34426;52.180;4.462;2024-03-02T11:09:56;100071.97;;;9.98;77.39
48630;BME280;34426;52.180;4.462;2024-03-02T11:12:25;100057.72;;;9.99;76.36
48630;BME280;34426;52.180;4.462;2024-03-02T11:14:55;100062.78;;;9.92;76.00
48630;BME280;34426;52.180;4.462;2024-03-02T11:17:21;100053.28;;;9.93;76.56
48630;BME280;34426;52.180;4.462;2024-03-02T11:19:50;100056.63;;;9.95;78.81
48630;BME280;34426;52.180;4.462;2024-03-02T11:22:16;100057.16;;;9.97;77.49
48630;BME280;34426;52.180;4.462;2024-03-02T11:24:48;100058.25;;;10.07;77.80
48630;BME280;34426;52.180;4.462;2024-03-02T11:30:49;100066.59;;;10.32;75.35
48630;BME280;34426;52.180;4.462;2024-03-02T11:33:25;100063.16;;;10.40;74.91
48630;BME280;34426;52.180;4.462;2024-03-02T11:35:51;100051.94;;;10.50;74.30
48630;BME280;34426;52.180;4.462;2024-03-02T11:38:18;100054.63;;;10.76;73.59
48630;BME280;34426;52.180;4.462;2024-03-02T11:40:44;100053.94;;;10.89;71.94
48630;BME280;34426;52.180;4.462;2024-03-02T11:43:10;100053.31;;;11.02;71.12
48630;BME280;34426;52.180;4.462;2024-03-02T11:45:36;100050.81;;;11.34;72.05
48630;BME280;34426;52.180;4.462;2024-03-02T11:48:06;100047.03;;;11.49;71.06
48630;BME280;34426;52.180;4.462;2024-03-02T11:50:34;100047.47;;;11.32;69.06
48630;BME280;34426;52.180;4.462;2024-03-02T11:53:00;100043.91;;;11.56;69.06
48630;BME280;34426;52.180;4.462;2024-03-02T11:55:26;100043.84;;;11.61;68.35
48630;BME280;34426;52.180;4.462;2024-03-02T11:57:52;100039.81;;;11.72;67.82
48630;BME280;34426;52.180;4.462;2024-03-02T12:00:25;100032.34;;;11.91;67.32
48630;BME280;34426;52.180;4.462;2024-03-02T12:03:00;100031.88;;;12.08;67.42
48630;BME280;34426;52.180;4.462;2024-03-02T12:05:26;100025.06;;;12.14;65.37
48630;BME280;34426;52.180;4.462;2024-03-02T12:07:56;100018.44;;;12.29;65.67
48630;BME280;34426;52.180;4.462;2024-03-02T12:10:21;100018.78;;;12.22;64.24
48630;BME280;34426;52.180;4.462;2024-03-02T12:12:47;100024.94;;;12.24;63.62
48630;BME280;34426;52.180;4.462;2024-03-02T12:15:12;100016.94;;;12.37;64.05
48630;BME280;34426;52.180;4.462;2024-03-02T12:17:39;100017.31;;;12.30;64.04
48630;BME280;34426;52.180;4.462;2024-03-02T12:20:05;99998.22;;;12.32;63.38
48630;BME280;34426;52.180;4.462;2024-03-02T12:22:34;100010.00;;;12.10;63.63
48630;BME280;34426;52.180;4.462;2024-03-02T12:25:00;100007.56;;;12.04;64.19
48630;BME280;34426;52.180;4.462;2024-03-02T12:27:25;99988.94;;;12.13;63.10
48630;BME280;34426;52.180;4.462;2024-03-02T12:29:51;99991.06;;;12.21;62.42
48630;BME280;34426;52.180;4.462;2024-03-02T12:32:17;99985.22;;;12.17;62.52
48630;BME280;34426;52.180;4.462;2024-03-02T12:34:54;99984.16;;;12.13;62.96
48630;BME280;34426;52.180;4.462;2024-03-02T12:37:20;99989.38;;;12.20;62.55
48630;BME280;34426;52.180;4.462;2024-03-02T12:39:45;99985.59;;;12.11;62.91
48630;BME280;34426;52.180;4.462;2024-03-02T12:42:12;99983.88;;;12.33;63.54
48630;BME280;34426;52.180;4.462;2024-03-02T12:44:37;99993.50;;;12.27;62.54
48630;BME280;34426;52.180;4.462;2024-03-02T12:47:03;99995.22;;;12.47;63.00
48630;BME280;34426;52.180;4.462;2024-03-02T12:49:29;99994.13;;;12.43;64.85
48630;BME280;34426;52.180;4.462;2024-03-02T12:51:56;99993.16;;;12.53;63.96
48630;BME280;34426;52.180;4.462;2024-03-02T12:54:22;99993.69;;;12.55;62.95
48630;BME280;34426;52.180;4.462;2024-03-02T12:56:48;99991.19;;;12.72;62.97
48630;BME280;34426;52.180;4.462;2024-03-02T12:59:18;99993.91;;;12.77;63.66